Time;durP1;ratioP1;P1;durP2;ratioP2;P2;SDS_P1;SDS_P2;PMS_P1;PMS_P2;Temp;Humidity;BMP_temperature;BMP_pressure;BME280_temperature;BME280_humidity;BME280_pressure;Samples;Min_cycle;Max_cycle;Signal;HPM_P1;HPM_P2
2022/04/02 00:00:21;;;;;;;28.30;14.15;;;;;;;-2.42;85.12;92457.88;5030861;28;20556;-47
2022/04/02 00:02:49;;;;;;;28.13;13.15;;;;;;;-2.22;85.92;92461.13;5030319;28;20049;-46
2022/04/02 00:05:16;;;;;;;27.43;13.53;;;;;;;-2.30;85.44;92464.13;5031021;28;20487;-46
2022/04/02 00:07:43;;;;;;;27.30;13.10;;;;;;;-2.24;86.01;92471.47;5030291;28;20049;-45
2022/04/02 00:10:09;;;;;;;26.80;12.90;;;;;;;-2.29;85.91;92463.00;5029787;28;20485;-48
2022/04/02 00:12:36;;;;;;;25.20;12.50;;;;;;;-2.29;85.65;92465.69;5030792;28;20053;-45
2022/04/02 00:15:04;;;;;;;26.25;12.63;;;;;;;-2.25;85.59;92463.78;5030253;28;20053;-51
2022/04/02 00:17:32;;;;;;;27.20;13.17;;;;;;;-2.30;85.36;92469.50;5030655;28;20418;-52
2022/04/02 00:19:59;;;;;;;25.38;12.23;;;;;;;-2.27;85.36;92460.72;5030230;28;20068;-48
2022/04/02 00:22:26;;;;;;;24.55;11.88;;;;;;;-2.42;85.36;92467.84;5029330;28;20411;-46
2022/04/02 00:24:52;;;;;;;25.55;12.27;;;;;;;-2.33;86.01;92473.69;5030267;28;20055;-45
2022/04/02 00:27:19;;;;;;;34.53;15.98;;;;;;;-2.22;86.53;92465.72;5030776;28;20049;-51
2022/04/02 00:29:46;;;;;;;26.83;13.80;;;;;;;-2.35;85.90;92456.41;5030094;28;20041;-50
2022/04/02 00:32:12;;;;;;;23.90;11.63;;;;;;;-2.37;85.64;92456.78;5030372;28;20041;-48
2022/04/02 00:34:39;;;;;;;25.17;12.00;;;;;;;-2.32;86.65;92461.03;5030649;28;20046;-47
2022/04/02 00:37:06;;;;;;;25.23;11.88;;;;;;;-2.30;86.72;92453.38;5029876;28;20047;-45
2022/04/02 00:39:33;;;;;;;24.58;11.05;;;;;;;-2.34;86.62;92460.63;5029257;28;20053;-47
2022/04/02 00:41:59;;;;;;;24.30;12.27;;;;;;;-2.51;86.69;92459.34;5029891;28;20042;-49
2022/04/02 00:44:26;;;;;;;23.30;11.18;;;;;;;-2.38;87.03;92460.59;5030215;28;20107;-47
2022/04/02 00:46:53;;;;;;;22.15;10.52;;;;;;;-2.36;86.60;92460.22;5028710;28;20056;-45
2022/04/02 00:49:20;;;;;;;23.92;11.25;;;;;;;-2.36;86.53;92458.31;5030514;28;20045;-46
2022/04/02 00:51:50;;;;;;;21.30;10.63;;;;;;;-2.29;86.46;92460.31;5029961;28;20045;-50
2022/04/02 00:54:20;;;;;;;21.00;10.73;;;;;;;-2.26;86.20;92457.63;5030275;28;20049;-44
2022/04/02 00:56:47;;;;;;;20.88;10.10;;;;;;;-2.22;85.83;92457.66;5029678;28;20056;-46
2022/04/02 00:59:14;;;;;;;18.90;9.68;;;;;;;-2.33;85.85;92464.88;5028869;28;20037;-44
2022/04/02 01:01:44;;;;;;;19.73;10.68;;;;;;;-2.51;86.64;92465.47;5030266;28;20060;-45
2022/04/02 01:04:12;;;;;;;20.23;10.32;;;;;;;-2.39;86.57;92463.63;5029319;28;20705;-45
2022/04/02 01:06:40;;;;;;;19.03;9.53;;;;;;;-2.36;86.45;92462.91;5030023;28;20049;-44
2022/04/02 01:09:09;;;;;;;18.50;9.25;;;;;;;-2.32;86.76;92461.78;5028366;28;21039;-44
2022/04/02 01:11:42;;;;;;;19.02;9.32;;;;;;;-2.42;86.47;92463.25;5030143;28;20058;-45
2022/04/02 01:14:10;;;;;;;18.30;9.30;;;;;;;-2.24;86.43;92460.72;5033051;28;20401;-45
2022/04/02 01:16:37;;;;;;;18.08;8.35;;;;;;;-2.23;86.27;92461.50;5034332;28;20041;-45
2022/04/02 01:19:05;;;;;;;17.87;9.00;;;;;;;-2.21;86.97;92469.97;5032172;28;20047;-47
2022/04/02 01:21:33;;;;;;;17.42;9.07;;;;;;;-2.37;86.50;92462.16;5033964;28;20042;-44
2022/04/02 01:24:00;;;;;;;23.77;11.80;;;;;;;-2.18;86.88;92465.75;5033244;28;20045;-46
2022/04/02 01:26:28;;;;;;;17.30;8.65;;;;;;;-2.15;87.08;92460.44;5033819;28;20038;-47
2022/04/02 01:29:00;;;;;;;17.15;8.80;;;;;;;-2.20;85.96;92463.44;5033260;28;20383;-45
2022/04/02 01:31:27;;;;;;;17.27;8.60;;;;;;;-2.21;86.34;92462.69;5033858;28;20131;-48
2022/04/02 01:33:54;;;;;;;14.82;7.50;;;;;;;-2.25;86.22;92459.19;5033310;28;20049;-45
2022/04/02 01:36:22;;;;;;;16.23;8.10;;;;;;;-2.24;86.89;92454.56;5033858;28;20049;-44
2022/04/02 01:38:49;;;;;;;16.08;8.23;;;;;;;-2.23;86.53;92464.19;5033261;28;20068;-46
2022/04/02 01:41:16;;;;;;;15.15;7.55;;;;;;;-2.13;86.61;92460.03;5032195;28;20041;-50
2022/04/02 01:43:44;;;;;;;15.63;7.70;;;;;;;-2.19;86.84;92459.63;5031986;28;20041;-47
2022/04/02 01:46:11;;;;;;;16.05;8.00;;;;;;;-2.13;86.38;92462.72;5033611;28;20049;-44
2022/04/02 01:48:39;;;;;;;14.88;7.03;;;;;;;-2.28;86.48;92459.91;5033543;28;20053;-50
2022/04/02 01:51:06;;;;;;;14.20;7.45;;;;;;;-2.24;86.20;92459.94;5033223;28;20049;-45
2022/04/02 01:53:33;;;;;;;14.75;7.90;;;;;;;-2.29;86.36;92458.38;5033656;28;20509;-47
2022/04/02 01:56:00;;;;;;;14.03;7.47;;;;;;;-2.22;86.68;92460.34;5031951;28;20041;-45
2022/04/02 01:58:27;;;;;;;13.40;7.40;;;;;;;-2.25;86.67;92463.78;5033490;28;20048;-45
2022/04/02 02:00:54;;;;;;;14.00;6.88;;;;;;;-2.22;86.10;92461.13;5032772;28;20045;-45
2022/04/02 02:03:21;;;;;;;12.40;6.60;;;;;;;-2.13;86.72;92458.13;5033418;28;20487;-47
2022/04/02 02:05:48;;;;;;;12.10;6.57;;;;;;;-2.13;85.69;92460.03;5032955;28;20041;-52
2022/04/02 02:08:15;;;;;;;12.77;6.43;;;;;;;-2.18;85.33;92463.09;5032067;28;20063;-47
2022/04/02 02:10:42;;;;;;;11.20;6.10;;;;;;;-2.21;85.05;92462.69;5033347;28;20053;-45
2022/04/02 02:13:09;;;;;;;10.73;6.05;;;;;;;-2.19;84.72;92451.56;5014787;28;20845;-45
2022/04/02 02:15:36;;;;;;;11.48;6.05;;;;;;;-2.14;84.70;92458.50;5032964;28;20099;-50
2022/04/02 02:18:03;;;;;;;10.90;6.13;;;;;;;-2.09;84.70;92456.25;5023243;28;20046;-46
2022/04/02 02:20:30;;;;;;;11.33;6.23;;;;;;;-2.14;84.30;92461.19;5024502;28;20052;-52
2022/04/02 02:22:57;;;;;;;12.40;6.80;;;;;;;-2.05;84.79;92461.66;5012665;28;20037;-49
2022/04/02 02:25:24;;;;;;;11.25;6.10;;;;;;;-2.06;84.37;92470.84;5013187;28;20416;-48
2022/04/02 02:27:52;;;;;;;12.35;6.43;;;;;;;-2.08;84.44;92463.16;5012656;28;20045;-46
2022/04/02 02:30:19;;;;;;;11.80;6.10;;;;;;;-1.99;84.36;92475.50;5012873;28;20050;-49
2022/04/02 02:32:46;;;;;;;11.50;6.27;;;;;;;-2.05;84.93;92470.50;5012385;28;20068;-47
2022/04/02 02:38:06;;;;;;;11.25;5.90;;;;;;;-2.04;84.59;92468.56;5012147;28;20038;-49
2022/04/02 02:40:33;;;;;;;10.68;5.72;;;;;;;-2.13;83.63;92473.47;5011390;28;20052;-45
2022/04/02 02:43:00;;;;;;;11.77;6.05;;;;;;;-2.03;83.96;92468.22;5012098;28;20050;-46
2022/04/02 02:45:27;;;;;;;11.57;5.67;;;;;;;-2.07;83.65;92477.41;5012646;28;20057;-47
2022/04/02 02:47:54;;;;;;;10.13;5.40;;;;;;;-2.00;83.82;92472.06;5011766;28;20107;-46
2022/04/02 02:50:21;;;;;;;10.32;5.68;;;;;;;-1.99;83.68;92476.31;5012767;28;20701;-51
2022/04/02 02:52:48;;;;;;;11.40;5.97;;;;;;;-1.98;83.38;92485.13;5012121;28;20053;-47
2022/04/02 02:55:15;;;;;;;10.13;5.35;;;;;;;-1.95;84.11;92482.47;5012773;28;20491;-49
2022/04/02 02:57:44;;;;;;;9.93;5.47;;;;;;;-1.96;83.87;92485.53;5012514;28;20414;-44
2022/04/02 03:00:13;;;;;;;10.20;5.43;;;;;;;-2.05;84.05;92488.53;5011497;28;21636;-45
2022/04/02 03:02:39;;;;;;;9.93;5.47;;;;;;;-2.05;84.20;92486.63;5012672;28;20042;-45
2022/04/02 03:05:17;;;;;;;10.63;5.90;;;;;;;-2.09;83.69;92490.44;5011965;28;20049;-49
2022/04/02 03:07:49;;;;;;;10.75;5.72;;;;;;;-2.12;84.23;92488.47;5026175;28;20041;-53
2022/04/02 03:10:30;;;;;;;10.70;5.73;;;;;;;-2.05;84.40;92485.84;5031938;28;20049;-45
2022/04/02 03:12:58;;;;;;;10.27;5.80;;;;;;;-2.02;84.92;92488.56;5031679;28;20057;-50
2022/04/02 03:15:26;;;;;;;11.07;5.90;;;;;;;-1.94;84.36;92486.69;5032005;28;20042;-45
2022/04/02 03:17:53;;;;;;;10.60;5.40;;;;;;;-2.02;84.14;92485.09;5031225;28;20041;-45
2022/04/02 03:20:21;;;;;;;10.48;5.55;;;;;;;-2.18;84.95;92479.19;5031781;28;20047;-46
2022/04/02 03:22:51;;;;;;;11.70;6.00;;;;;;;-2.13;84.98;92495.78;5030985;28;20045;-50
2022/04/02 03:25:19;;;;;;;11.10;5.65;;;;;;;-2.02;84.31;92483.19;5030252;28;20037;-48
2022/04/02 03:27:46;;;;;;;12.35;6.05;;;;;;;-2.01;84.23;92484.75;5027931;28;20045;-50
2022/04/02 03:30:18;;;;;;;10.70;5.82;;;;;;;-1.97;84.15;92487.47;5012084;28;20487;-50
2022/04/02 03:32:46;;;;;;;11.90;6.20;;;;;;;-1.92;84.13;92483.66;5011462;28;20045;-51
2022/04/02 03:35:17;;;;;;;10.43;5.33;;;;;;;-1.92;84.23;92479.03;5009811;28;20150;-47
2022/04/02 03:37:46;;;;;;;12.25;6.32;;;;;;;-1.97;84.21;92482.09;5011348;28;20053;-47
2022/04/02 03:40:16;;;;;;;12.32;6.32;;;;;;;-1.92;84.29;92479.03;5011654;28;20052;-46
2022/04/02 03:42:46;;;;;;;13.95;6.57;;;;;;;-1.98;84.20;92487.81;5011657;28;20095;-45
2022/04/02 03:45:15;;;;;;;16.55;7.43;;;;;;;-2.10;85.08;92488.88;4993923;28;20044;-50
2022/04/02 03:47:43;;;;;;;17.97;7.97;;;;;;;-2.10;85.72;92483.50;5011505;28;20046;-53
2022/04/02 03:50:10;;;;;;;16.10;7.07;;;;;;;-1.97;85.67;92484.78;5009494;28;20728;-46
2022/04/02 03:52:37;;;;;;;39.83;16.98;;;;;;;-1.96;85.99;92482.84;5011458;28;20072;-44
2022/04/02 03:55:05;;;;;;;17.63;8.27;;;;;;;-2.18;85.75;92485.34;5011026;28;20475;-46
2022/04/02 03:57:34;;;;;;;14.93;7.47;;;;;;;-2.13;86.32;92492.28;5026601;28;20048;-48
2022/04/02 04:00:02;;;;;;;12.00;6.73;;;;;;;-2.10;86.63;92481.56;5009851;28;20046;-46
2022/04/02 04:02:29;;;;;;;11.88;6.43;;;;;;;-2.07;86.79;92488.91;5026380;28;20057;-47
2022/04/02 04:04:58;;;;;;;13.65;6.50;;;;;;;-2.08;86.74;92490.03;5026052;28;20062;-45
2022/04/02 04:07:25;;;;;;;10.20;5.68;;;;;;;-2.07;86.46;92490.84;5021811;28;20047;-48
2022/04/02 04:09:51;;;;;;;10.85;5.65;;;;;;;-2.10;85.95;92486.19;5029195;28;20075;-46
2022/04/02 04:12:19;;;;;;;10.93;5.53;;;;;;;-1.95;86.57;92490.56;5030806;28;20044;-45
2022/04/02 04:14:45;;;;;;;10.80;5.90;;;;;;;-1.96;86.14;92488.22;5030426;28;20045;-45
2022/04/02 04:17:13;;;;;;;10.32;5.43;;;;;;;-2.01;85.99;92492.81;5030999;28;20083;-45
2022/04/02 04:19:40;;;;;;;11.20;5.70;;;;;;;-1.97;85.84;92494.72;5029178;28;20056;-45
2022/04/02 04:22:06;;;;;;;10.93;5.68;;;;;;;-1.90;86.01;92495.56;5030195;28;20046;-48
2022/04/02 04:24:33;;;;;;;9.73;5.43;;;;;;;-1.95;85.54;92501.31;5030804;28;20049;-48
2022/04/02 04:27:00;;;;;;;10.52;5.55;;;;;;;-1.99;85.63;92503.19;5020569;28;20038;-47
2022/04/02 04:29:27;;;;;;;10.77;5.20;;;;;;;-2.06;86.13;92505.81;5025173;28;20051;-45
2022/04/02 04:31:54;;;;;;;10.80;6.20;;;;;;;-2.10;86.20;92505.75;5028956;28;20048;-47
2022/04/02 04:34:20;;;;;;;10.50;5.50;;;;;;;-2.05;86.58;92513.50;5030553;28;20049;-53
2022/04/02 04:36:47;;;;;;;12.20;6.53;;;;;;;-2.02;86.35;92510.06;5030158;28;20490;-48
2022/04/02 04:39:14;;;;;;;10.13;5.75;;;;;;;-1.92;86.18;92515.91;5030604;28;20049;-49
2022/04/02 04:41:41;;;;;;;11.70;6.53;;;;;;;-1.89;86.17;92517.84;5030552;28;20045;-48
2022/04/02 04:44:08;;;;;;;12.52;6.10;;;;;;;-1.95;86.69;92520.13;5029601;28;20697;-46
2022/04/02 04:46:34;;;;;;;12.10;6.60;;;;;;;-2.02;86.71;92520.03;5030256;28;20050;-49
2022/04/02 04:49:01;;;;;;;12.53;6.00;;;;;;;-2.02;87.33;92520.81;5029583;28;20049;-49
2022/04/02 04:51:28;;;;;;;13.35;7.20;;;;;;;-1.96;87.50;92523.19;5030301;28;20079;-49
2022/04/02 04:53:55;;;;;;;12.20;6.50;;;;;;;-2.08;87.22;92522.28;5061728;28;20413;-48
2022/04/02 04:56:22;;;;;;;14.68;6.70;;;;;;;-2.02;87.10;92522.72;5029316;28;20049;-46
2022/04/02 04:58:48;;;;;;;12.75;6.85;;;;;;;-1.92;87.13;92532.03;5028553;28;20052;-45
2022/04/02 05:01:15;;;;;;;14.37;7.10;;;;;;;-1.95;86.46;92527.41;5030105;28;20064;-51
2022/04/02 05:03:42;;;;;;;13.45;7.43;;;;;;;-1.97;86.19;92532.38;5030245;28;20487;-50
2022/04/02 05:06:10;;;;;;;15.90;7.53;;;;;;;-1.92;86.67;92532.03;5028105;28;20683;-51
2022/04/02 05:08:36;;;;;;;15.27;7.75;;;;;;;-1.89;86.75;92539.34;5030001;28;20051;-52
2022/04/02 05:11:03;;;;;;;13.10;6.78;;;;;;;-1.90;86.40;92535.91;5029750;28;20049;-49
2022/04/02 05:13:30;;;;;;;13.93;7.23;;;;;;;-1.91;86.46;92547.03;5030249;28;20073;-45
2022/04/02 05:15:57;;;;;;;14.50;7.40;;;;;;;-1.96;86.74;92547.38;5029730;28;20059;-48
2022/04/02 05:18:25;;;;;;;18.08;7.22;;;;;;;-2.01;86.12;92545.81;5029703;28;20045;-45
2022/04/02 05:20:52;;;;;;;17.45;8.23;;;;;;;-2.02;85.67;92547.69;5029875;28;20061;-50
2022/04/02 05:23:19;;;;;;;16.98;8.68;;;;;;;-2.02;85.04;92550.38;5030125;28;20041;-46
2022/04/02 05:25:45;;;;;;;16.63;8.43;;;;;;;-1.95;84.69;92557.75;5029477;28;20110;-48
2022/04/02 05:28:12;;;;;;;12.50;6.63;;;;;;;-2.08;83.96;92553.78;5030115;28;20041;-46
2022/04/02 05:30:40;;;;;;;15.38;7.50;;;;;;;-1.93;83.76;92557.38;5029806;28;20041;-45
2022/04/02 05:33:07;;;;;;;13.60;7.10;;;;;;;-1.85;83.53;92561.66;5029386;28;20041;-49
2022/04/02 05:35:54;;;;;;;13.02;7.00;;;;;;;-1.93;82.79;92566.22;5029411;28;20050;-48
2022/04/02 05:38:21;;;;;;;13.10;7.17;;;;;;;-1.98;83.38;92566.56;5029713;28;20049;-48
2022/04/02 05:40:47;;;;;;;15.88;7.45;;;;;;;-2.03;83.26;92573.03;5029649;28;20053;-46
2022/04/02 05:43:14;;;;;;;13.57;7.10;;;;;;;-1.85;83.63;92564.34;5028757;28;20046;-47
2022/04/02 05:45:41;;;;;;;13.65;7.18;;;;;;;-1.97;83.49;92583.44;5029585;28;20483;-45
2022/04/02 05:48:08;;;;;;;13.75;7.53;;;;;;;-1.79;83.73;92579.03;5027527;28;21038;-44
2022/04/02 05:50:35;;;;;;;13.97;7.57;;;;;;;-1.81;83.57;92581.31;5029732;28;20050;-46
2022/04/02 05:53:04;;;;;;;12.23;6.65;;;;;;;-1.89;83.95;92588.53;5029131;28;20052;-50
2022/04/02 05:55:32;;;;;;;13.35;7.13;;;;;;;-1.78;84.02;92593.25;5028353;28;20045;-50
2022/04/02 05:57:59;;;;;;;14.13;8.10;;;;;;;-1.82;84.20;92599.34;5022861;28;20050;-48
2022/04/02 06:00:27;;;;;;;14.95;7.55;;;;;;;-1.73;84.20;92587.50;5021239;28;20042;-47
2022/04/02 06:03:03;;;;;;;15.43;7.70;;;;;;;-1.54;84.71;92594.63;5015954;28;20072;-46
2022/04/02 06:05:29;;;;;;;14.90;7.93;;;;;;;-1.53;84.55;92596.16;5020640;28;20050;-45
2022/04/02 06:07:56;;;;;;;15.55;7.03;;;;;;;-1.66;84.60;92595.66;5029125;28;20513;-46
2022/04/02 06:10:23;;;;;;;16.33;8.07;;;;;;;-1.66;84.78;92595.66;5032797;28;20045;-48
2022/04/02 06:12:51;;;;;;;15.55;7.50;;;;;;;-1.70;84.67;92605.63;5032709;28;20041;-47
2022/04/02 06:15:19;;;;;;;14.30;7.80;;;;;;;-1.85;85.08;92610.88;5033006;28;20072;-47
2022/04/02 06:17:46;;;;;;;14.18;7.50;;;;;;;-1.64;84.86;92610.28;5032128;28;20102;-56
2022/04/02 06:20:15;;;;;;;14.80;7.50;;;;;;;-1.65;83.81;92614.13;5032848;28;20409;-49
2022/04/02 06:22:42;;;;;;;14.40;7.43;;;;;;;-1.72;84.02;92619.44;5032773;28;20056;-49
2022/04/02 06:25:09;;;;;;;14.25;7.60;;;;;;;-1.61;83.74;92623.00;5030704;28;20739;-53
2022/04/02 06:27:41;;;;;;;13.00;6.90;;;;;;;-1.62;83.19;92631.44;5032688;28;20052;-47
2022/04/02 06:30:10;;;;;;;13.20;7.53;;;;;;;-1.61;83.09;92627.59;5030902;28;20041;-47
2022/04/02 06:32:38;;;;;;;16.92;7.85;;;;;;;-1.69;83.63;92634.84;5032486;28;20054;-48
2022/04/02 06:35:06;;;;;;;14.32;7.78;;;;;;;-1.48;83.44;92628.09;5031953;28;20532;-47
2022/04/02 06:37:34;;;;;;;13.23;7.72;;;;;;;-1.31;83.04;92632.88;5031321;28;20038;-49
2022/04/02 06:40:02;;;;;;;14.07;7.27;;;;;;;-1.26;81.81;92637.13;5030518;28;20061;-54
2022/04/02 06:42:29;;;;;;;11.52;6.78;;;;;;;-1.32;81.14;92639.41;5031105;28;20033;-48
2022/04/02 06:44:56;;;;;;;11.00;6.38;;;;;;;-1.04;80.75;92646.16;5030837;28;20045;-46
2022/04/02 06:47:27;;;;;;;12.85;6.70;;;;;;;-1.14;80.04;92647.63;5029784;28;20037;-47
2022/04/02 06:49:54;;;;;;;11.48;6.50;;;;;;;-1.29;80.79;92656.72;5030957;28;20045;-49
2022/04/02 06:52:22;;;;;;;12.47;6.43;;;;;;;-1.16;80.90;92651.84;5026110;28;20086;-47
2022/04/02 06:54:49;;;;;;;11.27;6.50;;;;;;;-0.99;79.64;92653.88;5024749;28;20057;-46
2022/04/02 06:57:20;;;;;;;13.23;6.35;;;;;;;-1.16;78.70;92659.91;5012043;28;20038;-47
2022/04/02 06:59:47;;;;;;;17.65;10.30;;;;;;;-0.84;78.84;92662.84;5011970;28;20049;-46
2022/04/02 07:02:15;;;;;;;15.82;8.27;;;;;;;-0.75;78.37;92665.22;5012505;28;20045;-48
2022/04/02 07:04:43;;;;;;;13.87;7.80;;;;;;;-0.72;77.98;92669.84;5012216;28;20042;-46
2022/04/02 07:07:10;;;;;;;13.73;7.80;;;;;;;-0.88;77.36;92680.91;5021176;28;20702;-47
2022/04/02 07:09:36;;;;;;;14.48;7.50;;;;;;;-0.59;77.73;92679.16;5031647;28;20084;-51
2022/04/02 07:12:04;;;;;;;16.80;8.90;;;;;;;-0.50;76.73;92681.56;5030958;28;20057;-50
2022/04/02 07:14:31;;;;;;;27.73;16.10;;;;;;;-0.89;77.54;92682.81;5024972;28;20518;-53
2022/04/02 07:16:58;;;;;;;16.27;8.73;;;;;;;-0.42;77.51;92692.00;5020229;28;20053;-52
2022/04/02 07:19:25;;;;;;;18.65;9.30;;;;;;;-0.55;77.39;92693.44;5011872;28;20048;-46
2022/04/02 07:21:53;;;;;;;15.57;7.57;;;;;;;-0.45;77.35;92695.41;5011483;28;20060;-47
2022/04/02 07:24:21;;;;;;;14.68;7.70;;;;;;;-0.36;76.90;92697.00;5031462;28;20055;-50
2022/04/02 07:26:48;;;;;;;14.27;7.15;;;;;;;-0.27;77.10;92700.16;5031348;28;20049;-46
2022/04/02 07:29:15;;;;;;;11.80;6.77;;;;;;;-0.42;77.01;92704.69;5031502;28;20041;-51
2022/04/02 07:31:46;;;;;;;11.25;6.03;;;;;;;-0.15;76.59;92707.16;5031683;28;20045;-50
2022/04/02 07:34:20;;;;;;;12.55;6.70;;;;;;;0.05;75.30;92713.81;5030951;28;20457;-53
2022/04/02 07:37:11;;;;;;;12.65;6.85;;;;;;;0.41;74.52;92716.66;5030831;28;20057;-55
2022/04/02 07:39:50;;;;;;;11.77;6.10;;;;;;;0.44;74.38;92718.56;5031232;28;20544;-47
2022/04/02 07:42:35;;;;;;;11.07;6.07;;;;;;;0.13;73.86;92728.09;5030268;28;20639;-49
2022/04/02 07:45:05;;;;;;;11.15;5.65;;;;;;;-0.05;74.51;92736.88;5030817;28;20045;-47
2022/04/02 07:47:37;;;;;;;10.10;5.78;;;;;;;0.72;73.71;92731.38;5029978;28;20060;-52
2022/04/02 07:50:13;;;;;;;10.85;6.30;;;;;;;0.52;73.51;92733.63;5030593;28;20049;-50
2022/04/02 07:52:46;;;;;;;13.18;5.93;;;;;;;0.64;73.11;92740.63;5029807;28;20053;-46
2022/04/02 07:55:13;;;;;;;9.70;5.30;;;;;;;0.52;73.24;92746.38;5011914;28;20050;-48
2022/04/02 07:57:42;;;;;;;8.20;5.00;;;;;;;0.43;72.73;92752.13;5010420;28;20052;-51
2022/04/02 08:00:19;;;;;;;10.77;6.25;;;;;;;0.73;71.84;92753.78;5009880;28;20052;-46
2022/04/02 08:02:50;;;;;;;13.02;5.70;;;;;;;0.50;72.79;92762.16;5009890;28;20046;-48
2022/04/02 08:05:19;;;;;;;11.52;6.50;;;;;;;0.85;72.04;92755.34;5010780;28;20068;-51
2022/04/02 08:07:55;;;;;;;10.07;6.37;;;;;;;1.21;70.87;92753.47;5024470;28;20071;-48
2022/04/02 08:10:25;;;;;;;9.75;5.65;;;;;;;0.62;70.69;92761.06;5030431;28;20068;-50
2022/04/02 08:12:55;;;;;;;10.68;6.32;;;;;;;0.82;71.50;92764.97;5029475;28;20055;-52
2022/04/02 08:15:23;;;;;;;12.43;7.82;;;;;;;0.91;71.80;92767.31;5030388;28;20098;-47
2022/04/02 08:17:54;;;;;;;13.88;7.35;;;;;;;0.91;70.50;92765.38;5029703;28;20080;-50
2022/04/02 08:20:22;;;;;;;10.70;6.20;;;;;;;1.02;71.80;92773.50;5030407;28;20049;-47
2022/04/02 08:22:49;;;;;;;10.48;6.40;;;;;;;0.79;71.09;92777.31;5029251;28;20045;-48
2022/04/02 08:25:16;;;;;;;12.40;6.53;;;;;;;1.09;71.47;92778.94;5030136;28;20045;-51
2022/04/02 08:27:46;;;;;;;12.38;7.45;;;;;;;1.30;69.50;92777.41;5029328;28;20107;-48
2022/04/02 08:30:24;;;;;;;9.77;6.35;;;;;;;0.58;72.02;92786.13;5030114;28;20119;-47
2022/04/02 08:33:28;;;;;;;11.77;7.20;;;;;;;1.17;71.29;92782.44;5029430;28;20049;-48
2022/04/02 08:36:15;;;;;;;10.07;6.20;;;;;;;0.91;70.42;92786.22;5029369;28;20049;-47
2022/04/02 08:39:34;;;;;;;13.10;7.07;;;;;;;1.31;70.58;92787.84;5030242;28;20155;-50
2022/04/02 08:42:45;;;;;;;13.23;6.65;;;;;;;1.57;69.12;92794.81;5016251;28;20636;-46
2022/04/02 08:45:14;;;;;;;11.20;6.60;;;;;;;0.94;70.58;92799.72;5012098;28;20537;-50
2022/04/02 08:48:25;;;;;;;13.47;6.60;;;;;;;1.39;68.01;92800.22;5030042;28;20071;-48
2022/04/02 08:51:11;;;;;;;11.88;6.13;;;;;;;1.66;67.95;92799.84;5028429;28;20483;-49
2022/04/02 08:54:04;;;;;;;11.50;5.80;;;;;;;1.29;70.44;92803.69;5029709;28;20053;-52
2022/04/02 08:56:38;;;;;;;9.27;5.95;;;;;;;1.46;68.81;92815.66;5029063;28;20698;-50
2022/04/02 08:59:07;;;;;;;9.38;5.32;;;;;;;2.06;68.30;92816.81;5029168;28;20513;-50
2022/04/02 09:01:47;;;;;;;12.03;7.30;;;;;;;2.28;66.94;92822.97;5029846;28;20071;-50
2022/04/02 09:04:42;;;;;;;8.82;5.60;;;;;;;2.26;65.98;92819.13;5028711;28;20728;-54
2022/04/02 09:07:40;;;;;;;11.50;5.05;;;;;;;2.27;67.11;92826.06;5028358;28;21650;-54
2022/04/02 09:10:13;;;;;;;7.97;4.50;;;;;;;1.66;67.77;92836.94;5028862;28;20079;-53
2022/04/02 09:13:17;;;;;;;9.65;5.75;;;;;;;2.24;66.08;92833.06;5029798;28;20064;-48
2022/04/02 09:16:00;;;;;;;8.30;5.43;;;;;;;1.73;66.92;92832.31;5028057;28;20646;-50
2022/04/02 09:18:43;;;;;;;9.57;5.57;;;;;;;1.95;68.06;92837.69;5029392;28;20079;-52
2022/04/02 09:21:31;;;;;;;10.43;6.40;;;;;;;1.43;68.44;92839.97;5028522;28;20704;-48
2022/04/02 09:24:19;;;;;;;9.85;6.32;;;;;;;1.83;67.46;92840.78;5028545;28;20049;-52
2022/04/02 09:27:10;;;;;;;7.47;4.63;;;;;;;0.91;68.65;92854.53;5029014;28;20681;-55
2022/04/02 09:29:50;;;;;;;8.40;5.23;;;;;;;1.36;69.28;92852.31;5029582;28;20049;-50
2022/04/02 09:32:43;;;;;;;8.77;5.50;;;;;;;1.35;67.96;92848.09;5028549;28;20955;-48
2022/04/02 09:35:34;;;;;;;8.18;5.32;;;;;;;1.49;67.20;92860.88;5021817;28;20714;-48
2022/04/02 09:38:18;;;;;;;10.57;6.93;;;;;;;1.36;67.56;92862.38;5027756;28;20095;-52
2022/04/02 09:40:48;;;;;;;8.35;5.20;;;;;;;1.40;67.93;92863.94;5024366;28;20417;-50
2022/04/02 09:43:24;;;;;;;8.57;4.83;;;;;;;1.11;68.75;92862.31;5033626;28;20432;-46
2022/04/02 09:46:18;;;;;;;8.85;5.25;;;;;;;1.43;68.16;92867.00;5032986;28;20053;-51
2022/04/02 09:49:15;;;;;;;6.80;4.25;;;;;;;0.97;67.83;92871.16;5033122;28;20045;-51
2022/04/02 09:51:50;;;;;;;6.28;4.00;;;;;;;1.22;67.70;92870.44;5033538;28;20041;-49
2022/04/02 09:54:30;;;;;;;6.25;3.88;;;;;;;0.85;67.98;92876.88;5032376;28;20218;-51
2022/04/02 09:57:22;;;;;;;7.37;4.50;;;;;;;0.83;69.03;92879.19;5032927;28;20049;-50
2022/04/02 10:00:08;;;;;;;7.82;4.38;;;;;;;0.55;69.89;92884.06;5032395;28;20083;-48
2022/04/02 10:02:50;;;;;;;6.88;4.50;;;;;;;0.66;70.05;92889.50;5032200;28;20049;-47
2022/04/02 10:05:27;;;;;;;7.28;4.95;;;;;;;-0.01;72.14;92880.59;5032690;28;20880;-53
2022/04/02 10:08:11;;;;;;;6.43;4.00;;;;;;;0.47;70.31;92892.50;5032701;28;20056;-50
2022/04/02 10:10:41;;;;;;;9.77;5.80;;;;;;;0.57;70.32;92891.78;5033159;28;20418;-50
2022/04/02 10:13:08;;;;;;;8.85;4.50;;;;;;;0.86;69.93;92887.28;5032657;28;20063;-53
2022/04/02 10:15:41;;;;;;;8.13;4.78;;;;;;;1.09;71.30;92900.53;5033110;28;20112;-47
2022/04/02 10:18:11;;;;;;;11.45;5.20;;;;;;;1.31;68.11;92900.56;5032866;28;20037;-48
2022/04/02 10:20:38;;;;;;;8.05;4.82;;;;;;;1.03;68.20;92895.84;5032962;28;20049;-51
2022/04/02 10:23:22;;;;;;;9.43;5.30;;;;;;;1.61;67.30;92897.59;5032239;28;20041;-48
2022/04/02 10:25:55;;;;;;;8.50;5.60;;;;;;;1.41;67.70;92897.16;5032356;28;20050;-48
2022/04/02 10:28:27;;;;;;;8.48;5.03;;;;;;;1.25;68.32;92902.09;5032827;28;20049;-46
2022/04/02 10:30:57;;;;;;;9.80;5.30;;;;;;;2.06;68.10;92911.53;5032104;28;20106;-49
2022/04/02 10:33:28;;;;;;;7.53;4.97;;;;;;;2.54;64.32;92910.38;5032926;28;20053;-50
2022/04/02 10:35:57;;;;;;;9.00;5.03;;;;;;;2.79;64.51;92900.25;5032370;28;20071;-49
2022/04/02 10:38:33;;;;;;;7.85;4.78;;;;;;;1.88;65.91;92908.81;5030439;28;20479;-52
2022/04/02 10:41:07;;;;;;;7.82;4.82;;;;;;;2.37;62.68;92910.00;5012713;28;20125;-49
2022/04/02 10:43:50;;;;;;;9.07;5.03;;;;;;;2.24;66.21;92908.84;5012624;28;20048;-46
2022/04/02 10:46:22;;;;;;;8.40;4.38;;;;;;;2.47;65.03;92918.50;5008771;28;20894;-48
2022/04/02 10:48:57;;;;;;;9.63;4.60;;;;;;;2.09;66.82;92910.00;5012338;28;20042;-48
2022/04/02 10:51:26;;;;;;;9.63;5.72;;;;;;;2.66;65.90;92928.16;5012630;28;20062;-50
2022/04/02 10:54:07;;;;;;;6.80;4.30;;;;;;;3.16;65.36;92914.50;5011867;28;20057;-49
2022/04/02 10:56:45;;;;;;;7.25;4.75;;;;;;;3.23;62.42;92921.81;5012636;28;20060;-47
2022/04/02 10:59:15;;;;;;;7.32;4.10;;;;;;;3.89;62.90;92927.31;5011349;28;20890;-47
2022/04/02 11:01:48;;;;;;;6.90;4.10;;;;;;;2.88;62.50;92929.66;5012187;28;20042;-53
2022/04/02 11:04:36;;;;;;;6.03;4.15;;;;;;;2.96;62.65;92919.59;5011352;28;21593;-54
2022/04/02 11:07:03;;;;;;;6.93;4.45;;;;;;;4.28;60.93;92920.81;5020910;28;20056;-49
2022/04/02 11:09:41;;;;;;;7.10;4.22;;;;;;;4.50;58.80;92920.66;5031876;28;20049;-48
2022/04/02 11:12:11;;;;;;;5.70;4.15;;;;;;;3.43;60.85;92930.25;5031326;28;20441;-48
2022/04/02 11:14:40;;;;;;;6.90;4.33;;;;;;;4.31;61.48;92930.91;5031991;28;20068;-48
2022/04/02 11:17:08;;;;;;;6.40;4.22;;;;;;;4.73;59.16;92928.22;5031442;28;20087;-48
2022/04/02 11:19:56;;;;;;;6.43;4.30;;;;;;;2.08;65.28;92944.41;5031836;28;20068;-49
2022/04/02 11:22:51;;;;;;;6.35;4.03;;;;;;;2.54;66.12;92940.94;5030699;28;21544;-48
2022/04/02 11:25:28;;;;;;;6.32;3.90;;;;;;;2.99;63.72;92943.19;5030624;28;20851;-47
2022/04/02 11:28:17;;;;;;;6.00;3.77;;;;;;;3.04;62.82;92952.84;5031063;28;20059;-49
2022/04/02 11:31:11;;;;;;;5.68;3.63;;;;;;;2.80;61.45;92956.00;5030961;28;20048;-48
2022/04/02 11:33:51;;;;;;;5.60;3.92;;;;;;;2.12;63.93;92960.66;5028856;28;20046;-54
2022/04/02 11:36:27;;;;;;;6.22;3.92;;;;;;;2.92;62.53;92970.31;5030549;28;20530;-51
2022/04/02 11:38:59;;;;;;;6.72;3.75;;;;;;;1.84;62.68;92969.50;5025915;28;20060;-51
2022/04/02 11:41:36;;;;;;;6.73;4.53;;;;;;;1.92;64.48;92966.41;5012087;28;20046;-48
2022/04/02 11:44:16;;;;;;;6.65;4.35;;;;;;;2.46;64.87;92965.72;5011404;28;20050;-48
2022/04/02 11:46:59;;;;;;;7.57;4.88;;;;;;;2.82;63.85;92971.88;5011335;28;20042;-47
2022/04/02 11:49:31;;;;;;;8.00;4.97;;;;;;;2.89;63.02;92969.13;5011786;28;20042;-51
2022/04/02 11:52:10;;;;;;;8.85;5.63;;;;;;;2.84;62.41;92971.47;5010948;28;20049;-50